createdAt,value
2023-09-02T00:00:57.695Z,101354.19
2023-09-02T00:03:25.335Z,101350.88
2023-09-02T00:05:52.950Z,101356.63
2023-09-02T00:08:20.574Z,101357.44
2023-09-02T00:10:48.214Z,101360.53
2023-09-02T00:13:17.469Z,101361.19
2023-09-02T00:15:45.156Z,101364.47
2023-09-02T00:18:12.801Z,101361.00
2023-09-02T00:20:40.320Z,101362.22
2023-09-02T00:23:07.938Z,101355.59
2023-09-02T00:25:35.548Z,101357.88
2023-09-02T00:28:03.306Z,101367.81
2023-09-02T00:30:32.236Z,101366.13
2023-09-02T00:32:59.839Z,101367.16
2023-09-02T00:35:27.482Z,101368.56
2023-09-02T00:37:55.248Z,101369.22
2023-09-02T00:40:25.306Z,101366.53
2023-09-02T00:42:55.957Z,101369.41
2023-09-02T00:45:25.216Z,101362.78
2023-09-02T00:47:55.078Z,101360.94
2023-09-02T00:50:22.882Z,101359.56
2023-09-02T00:52:50.506Z,101356.25
2023-09-02T00:55:18.332Z,101355.44
2023-09-02T00:57:46.904Z,101362.44
2023-09-02T01:00:15.607Z,101363.63
2023-09-02T01:02:47.387Z,101368.97
2023-09-02T01:05:17.198Z,101368.16
2023-09-02T01:07:45.708Z,101367.72
2023-09-02T01:10:13.264Z,101366.06
2023-09-02T01:12:41.522Z,101371.84
2023-09-02T01:15:09.859Z,101361.13
2023-09-02T01:17:37.798Z,101360.53
2023-09-02T01:20:09.401Z,101361.97
2023-09-02T01:23:00.436Z,101363.63
2023-09-02T01:25:50.222Z,101367.13
2023-09-02T01:28:22.729Z,101376.22
2023-09-02T01:30:55.032Z,101376.59
2023-09-02T01:33:23.748Z,101377.84
2023-09-02T01:35:53.040Z,101385.03
2023-09-02T01:38:23.097Z,101389.19
2023-09-02T01:40:55.810Z,101393.25
2023-09-02T01:43:25.720Z,101398.19
2023-09-02T01:45:53.685Z,101402.94
2023-09-02T01:48:21.962Z,101401.50
2023-09-02T01:50:50.479Z,101403.97
2023-09-02T01:53:18.322Z,101410.16
2023-09-02T01:55:48.980Z,101408.91
2023-09-02T01:58:18.919Z,101399.84
2023-09-02T02:00:47.969Z,101402.09
2023-09-02T02:03:21.792Z,101407.44
2023-09-02T02:05:54.300Z,101408.06
2023-09-02T02:08:28.745Z,101406.41
2023-09-02T02:11:00.365Z,101413.63
2023-09-02T02:13:27.975Z,101401.03
2023-09-02T02:15:57.188Z,101402.66
2023-09-02T02:18:24.838Z,101413.38
2023-09-02T02:21:00.655Z,101412.13
2023-09-02T02:23:28.273Z,101405.09
2023-09-02T02:26:00.709Z,101413.38
2023-09-02T02:28:28.340Z,101415.00
2023-09-02T02:30:59.601Z,101416.66
2023-09-02T02:33:28.866Z,101414.03
2023-09-02T02:35:56.603Z,101413.66
2023-09-02T02:38:24.429Z,101420.81
2023-09-02T02:40:52.167Z,101422.06
2023-09-02T02:43:25.364Z,101423.53
2023-09-02T02:45:53.057Z,101415.94
2023-09-02T02:48:24.598Z,101416.53
2023-09-02T02:50:52.204Z,101421.69
2023-09-02T02:53:20.149Z,101429.47
2023-09-02T02:55:48.037Z,101425.56
2023-09-02T02:58:16.990Z,101435.88
2023-09-02T03:00:45.355Z,101430.44
2023-09-02T03:03:13.641Z,101438.03
2023-09-02T03:05:43.218Z,101434.50
2023-09-02T03:08:12.062Z,101430.16
2023-09-02T03:10:39.695Z,101431.78
2023-09-02T03:13:07.655Z,101436.31
2023-09-02T03:15:36.986Z,101436.78
2023-09-02T03:18:06.207Z,101437.22
2023-09-02T03:20:34.323Z,101431.88
2023-09-02T03:23:05.959Z,101432.25
2023-09-02T03:25:33.801Z,101426.50
2023-09-02T03:28:02.148Z,101425.69
2023-09-02T03:30:30.140Z,101431.47
2023-09-02T03:32:59.212Z,101425.91
2023-09-02T03:35:27.176Z,101422.38
2023-09-02T03:37:54.864Z,101430.25
2023-09-02T03:40:23.906Z,101428.56
2023-09-02T03:42:51.530Z,101437.41
2023-09-02T03:45:19.349Z,101435.53
2023-09-02T03:47:47.001Z,101426.06
2023-09-02T03:50:14.706Z,101431.44
2023-09-02T03:52:42.708Z,101433.53
2023-09-02T03:55:10.318Z,101425.47
2023-09-02T03:57:39.856Z,101435.56
2023-09-02T04:00:09.313Z,101434.78
2023-09-02T04:02:43.969Z,101434.16
2023-09-02T04:05:13.106Z,101436.59
2023-09-02T04:07:40.761Z,101436.81
2023-09-02T04:10:09.254Z,101441.78
2023-09-02T04:12:36.894Z,101441.09
2023-09-02T04:15:06.931Z,101444.16
2023-09-02T04:17:34.513Z,101447.38
2023-09-02T04:20:05.422Z,101443.63
2023-09-02T04:22:33.118Z,101447.75
2023-09-02T04:25:00.759Z,101450.41
2023-09-02T04:27:28.379Z,101456.72
2023-09-02T04:29:56.006Z,101457.13
2023-09-02T04:32:25.723Z,101452.59
2023-09-02T04:34:53.411Z,101458.41
2023-09-02T04:37:21.330Z,101464.31
2023-09-02T04:39:49.514Z,101472.34
2023-09-02T04:42:17.251Z,101476.38
2023-09-02T04:44:44.952Z,101472.25
2023-09-02T04:47:13.405Z,101473.47
2023-09-02T04:49:42.622Z,101482.91
2023-09-02T04:52:11.158Z,101489.41
2023-09-02T04:54:38.808Z,101486.50
2023-09-02T04:57:06.579Z,101486.94
2023-09-02T04:59:34.233Z,101497.03
2023-09-02T05:02:02.009Z,101504.88
2023-09-02T05:04:29.702Z,101505.56
2023-09-02T05:06:58.627Z,101511.25
2023-09-02T05:09:26.332Z,101500.34
2023-09-02T05:11:54.025Z,101497.91
2023-09-02T05:14:22.015Z,101500.06
2023-09-02T05:16:49.640Z,101510.44
2023-09-02T05:19:18.192Z,101512.56
2023-09-02T05:21:47.476Z,101522.47
2023-09-02T05:24:16.782Z,101521.84
2023-09-02T05:26:44.637Z,101524.16
2023-09-02T05:29:12.227Z,101522.16
2023-09-02T05:31:39.897Z,101520.16
2023-09-02T05:34:07.771Z,101516.66
2023-09-02T05:36:35.421Z,101520.41
2023-09-02T05:39:03.172Z,101519.41
2023-09-02T05:41:32.110Z,101518.38
2023-09-02T05:43:59.689Z,101514.06
2023-09-02T05:46:27.345Z,101527.69
2023-09-02T05:48:54.992Z,101522.38
2023-09-02T05:51:22.557Z,101523.22
2023-09-02T05:53:50.139Z,101531.50
2023-09-02T05:56:17.765Z,101530.72
2023-09-02T05:58:46.716Z,101527.81
2023-09-02T06:01:14.343Z,101531.94
2023-09-02T06:03:43.010Z,101524.13
2023-09-02T06:06:11.672Z,101525.78
2023-09-02T06:08:39.412Z,101530.53
2023-09-02T06:11:07.708Z,101540.25
2023-09-02T06:13:36.993Z,101541.06
2023-09-02T06:16:07.722Z,101541.47
2023-09-02T06:18:36.776Z,101541.06
2023-09-02T06:21:09.601Z,101537.94
2023-09-02T06:23:37.189Z,101544.53
2023-09-02T06:26:05.422Z,101548.44
2023-09-02T06:28:33.126Z,101543.88
2023-09-02T06:31:00.769Z,101557.13
2023-09-02T06:33:29.703Z,101557.09
2023-09-02T06:35:57.285Z,101551.06
2023-09-02T06:38:24.896Z,101557.03
2023-09-02T06:40:52.454Z,101545.41
2023-09-02T06:43:20.335Z,101556.16
2023-09-02T06:45:48.910Z,101551.13
2023-09-02T06:48:16.680Z,101549.84
2023-09-02T06:50:48.510Z,101554.31
2023-09-02T06:53:16.578Z,101571.19
2023-09-02T06:55:44.644Z,101569.91
2023-09-02T06:58:12.237Z,101580.19
2023-09-02T07:00:40.363Z,101576.81
2023-09-02T07:03:08.035Z,101575.13
2023-09-02T07:05:35.661Z,101578.00
2023-09-02T07:08:05.165Z,101580.38
2023-09-02T07:10:32.751Z,101589.00
2023-09-02T07:13:00.437Z,101594.50
2023-09-02T07:15:28.072Z,101598.72
2023-09-02T07:17:55.726Z,101605.22
2023-09-02T07:20:23.327Z,101596.88
2023-09-02T07:22:50.963Z,101609.59
2023-09-02T07:25:20.154Z,101614.50
2023-09-02T07:27:47.758Z,101608.34
2023-09-02T07:30:15.482Z,101614.31
2023-09-02T07:32:43.162Z,101608.75
2023-09-02T07:35:11.393Z,101618.53
2023-09-02T07:37:38.962Z,101624.56
2023-09-02T07:40:08.087Z,101622.50
2023-09-02T07:42:37.075Z,101616.47
2023-09-02T07:45:04.945Z,101618.41
2023-09-02T07:47:32.591Z,101618.66
2023-09-02T07:50:00.265Z,101628.53
2023-09-02T07:52:27.886Z,101631.66
2023-09-02T07:54:55.512Z,101636.88
2023-09-02T07:57:23.154Z,101643.59
2023-09-02T07:59:52.141Z,101651.69
2023-09-02T08:02:19.783Z,101645.00
2023-09-02T08:04:47.401Z,101647.72
2023-09-02T08:07:15.021Z,101646.44
2023-09-02T08:09:42.624Z,101655.84
2023-09-02T08:12:12.675Z,101663.22
2023-09-02T08:14:40.255Z,101661.81
2023-09-02T08:17:09.523Z,101663.00
2023-09-02T08:19:37.307Z,101667.72
2023-09-02T08:22:05.376Z,101666.28
2023-09-02T08:24:32.961Z,101665.25
2023-09-02T08:27:00.581Z,101662.31
2023-09-02T08:29:28.124Z,101666.41
2023-09-02T08:31:56.814Z,101667.22
2023-09-02T08:34:25.694Z,101664.38
2023-09-02T08:36:53.372Z,101665.44
2023-09-02T08:39:20.913Z,101666.94
2023-09-02T08:41:50.865Z,101660.47
2023-09-02T08:44:18.914Z,101670.44
2023-09-02T08:46:47.961Z,101663.66
2023-09-02T08:49:17.264Z,101669.28
2023-09-02T08:51:48.021Z,101670.81
2023-09-02T08:54:16.434Z,101674.75
2023-09-02T08:56:44.781Z,101663.97
2023-09-02T08:59:12.497Z,101672.00
2023-09-02T09:01:43.164Z,101669.94
2023-09-02T09:04:11.716Z,101677.88
2023-09-02T09:06:39.663Z,101687.19
2023-09-02T09:09:09.952Z,101678.84
2023-09-02T09:11:38.802Z,101675.94
2023-09-02T09:14:09.818Z,101671.38
2023-09-02T09:16:39.294Z,101667.44
2023-09-02T09:19:09.611Z,101661.47
2023-09-02T09:21:38.860Z,101668.56
2023-09-02T09:24:13.041Z,101679.41
2023-09-02T09:26:40.869Z,101675.72
2023-09-02T09:29:13.791Z,101674.72
2023-09-02T09:31:41.435Z,101678.81
2023-09-02T09:34:09.355Z,101678.19
2023-09-02T09:36:36.935Z,101679.47
2023-09-02T09:39:06.482Z,101675.00
2023-09-02T09:41:37.089Z,101684.03
2023-09-02T09:44:06.777Z,101681.03
2023-09-02T09:46:36.096Z,101685.63
2023-09-02T09:49:04.389Z,101689.19
2023-09-02T09:51:32.102Z,101684.25
2023-09-02T09:53:59.851Z,101692.06
2023-09-02T09:56:27.521Z,101694.28
2023-09-02T09:58:56.494Z,101690.88
2023-09-02T10:01:25.444Z,101696.31
2023-09-02T10:03:56.134Z,101696.38
2023-09-02T10:06:23.896Z,101697.13
2023-09-02T10:08:59.631Z,101707.34
2023-09-02T10:11:27.411Z,101713.34
2023-09-02T10:13:58.286Z,101707.47
2023-09-02T10:16:27.165Z,101708.88
2023-09-02T10:18:54.879Z,101707.53
2023-09-02T10:21:25.932Z,101713.25
2023-09-02T10:23:57.460Z,101717.97
2023-09-02T10:26:29.565Z,101722.91
2023-09-02T10:29:02.095Z,101714.50
2023-09-02T10:31:37.569Z,101717.44
2023-09-02T10:34:08.906Z,101716.81
2023-09-02T10:36:41.371Z,101705.88
2023-09-02T10:39:15.145Z,101713.03
2023-09-02T10:41:47.564Z,101709.09
2023-09-02T10:44:18.793Z,101712.19
2023-09-02T10:46:47.524Z,101716.81
2023-09-02T10:49:15.157Z,101725.38
2023-09-02T10:51:44.276Z,101721.66
2023-09-02T10:54:11.891Z,101720.47
2023-09-02T10:56:39.519Z,101720.56
2023-09-02T10:59:09.006Z,101720.63
2023-09-02T11:01:45.389Z,101724.03
2023-09-02T11:04:13.134Z,101722.53
2023-09-02T11:07:14.196Z,101728.00
2023-09-02T11:09:51.334Z,101723.78
2023-09-02T11:12:18.911Z,101735.38
2023-09-02T11:15:14.626Z,101743.06
2023-09-02T11:17:44.024Z,101731.78
2023-09-02T11:20:13.553Z,101736.78
2023-09-02T11:22:51.892Z,101738.63
2023-09-02T11:25:33.981Z,101736.28
2023-09-02T11:28:03.089Z,101743.13
2023-09-02T11:30:32.733Z,101746.19
2023-09-02T11:33:02.319Z,101737.56
2023-09-02T11:35:31.977Z,101744.06
2023-09-02T11:37:59.824Z,101738.44
2023-09-02T11:40:29.091Z,101741.31
2023-09-02T11:43:00.556Z,101732.25
2023-09-02T11:45:30.084Z,101736.63
2023-09-02T11:47:58.434Z,101733.38
2023-09-02T11:50:27.800Z,101733.34
2023-09-02T11:52:56.588Z,101739.56
2023-09-02T11:55:25.099Z,101740.56
2023-09-02T11:57:53.717Z,101733.66
2023-09-02T12:00:23.061Z,101731.47
2023-09-02T12:02:51.789Z,101724.97
2023-09-02T12:05:19.523Z,101739.66
2023-09-02T12:07:49.505Z,101747.38
2023-09-02T12:10:18.706Z,101735.13
2023-09-02T12:12:48.797Z,101746.06
2023-09-02T12:15:17.806Z,101740.56
2023-09-02T12:17:46.747Z,101741.63
2023-09-02T12:20:15.864Z,101737.16
2023-09-02T12:22:45.595Z,101737.69
2023-09-02T12:25:18.012Z,101738.97
2023-09-02T12:27:46.195Z,101737.84
2023-09-02T12:30:14.710Z,101736.94
2023-09-02T12:32:42.329Z,101726.84
2023-09-02T12:35:10.878Z,101739.91
2023-09-02T12:37:39.254Z,101746.63
2023-09-02T12:40:11.940Z,101741.31
2023-09-02T12:42:42.009Z,101740.75
2023-09-02T12:45:10.912Z,101742.41
2023-09-02T12:47:40.617Z,101739.72
2023-09-02T12:50:08.779Z,101731.59
2023-09-02T12:52:36.726Z,101737.31
2023-09-02T12:55:06.176Z,101736.53
2023-09-02T12:57:34.718Z,101741.97
2023-09-02T13:00:06.139Z,101738.13
2023-09-02T13:02:34.196Z,101743.81
2023-09-02T13:05:01.830Z,101745.94
2023-09-02T13:07:30.062Z,101746.28
2023-09-02T13:09:57.712Z,101745.22
2023-09-02T13:12:27.683Z,101738.53
2023-09-02T13:14:55.281Z,101739.84
2023-09-02T13:17:24.636Z,101732.03
2023-09-02T13:19:53.005Z,101733.28
2023-09-02T13:22:20.671Z,101730.06
2023-09-02T13:24:49.162Z,101732.78
2023-09-02T13:27:18.226Z,101732.25
2023-09-02T13:29:46.067Z,101723.28
2023-09-02T13:32:19.877Z,101721.34
2023-09-02T13:34:48.749Z,101729.50
2023-09-02T13:37:24.492Z,101719.94
2023-09-02T13:39:56.533Z,101722.97
2023-09-02T13:42:24.428Z,101728.50
2023-09-02T13:44:52.162Z,101718.72
2023-09-02T13:47:20.643Z,101713.56
2023-09-02T13:49:55.565Z,101705.63
2023-09-02T13:52:25.265Z,101703.38
2023-09-02T13:54:56.258Z,101701.19
2023-09-02T13:57:24.714Z,101706.63
2023-09-02T13:59:56.042Z,101696.88
2023-09-02T14:02:25.066Z,101700.72
2023-09-02T14:04:54.933Z,101695.91
2023-09-02T14:07:22.601Z,101696.41
2023-09-02T14:09:50.242Z,101696.09
2023-09-02T14:12:20.767Z,101698.22
2023-09-02T14:14:48.631Z,101701.16
2023-09-02T14:17:16.210Z,101693.50
2023-09-02T14:19:43.776Z,101702.28
2023-09-02T14:22:12.650Z,101693.59
2023-09-02T14:24:40.333Z,101693.91
2023-09-02T14:27:09.933Z,101698.75
2023-09-02T14:29:37.729Z,101699.81
2023-09-02T14:32:06.298Z,101694.03
2023-09-02T14:34:34.532Z,101704.66
2023-09-02T14:37:02.943Z,101701.19
2023-09-02T14:39:34.513Z,101703.66
2023-09-02T14:42:03.581Z,101703.66
2023-09-02T14:44:31.914Z,101713.28
2023-09-02T14:47:00.931Z,101707.22
2023-09-02T14:49:28.929Z,101707.22
2023-09-02T14:51:57.325Z,101715.91
2023-09-02T14:54:25.183Z,101713.16
2023-09-02T14:56:55.135Z,101710.44
2023-09-02T14:59:24.149Z,101720.22
2023-09-02T15:01:52.731Z,101716.66
2023-09-02T15:04:21.495Z,101720.47
2023-09-02T15:06:49.914Z,101716.59
2023-09-02T15:09:29.189Z,101726.91
2023-09-02T15:11:58.216Z,101726.59
2023-09-02T15:14:27.384Z,101721.66
2023-09-02T15:16:55.367Z,101731.50
2023-09-02T15:19:23.713Z,101728.66
2023-09-02T15:21:51.435Z,101735.47
2023-09-02T15:24:26.688Z,101733.44
2023-09-02T15:26:54.312Z,101743.63
2023-09-02T15:29:25.812Z,101742.44
2023-09-02T15:31:53.925Z,101741.13
2023-09-02T15:34:22.303Z,101753.75
2023-09-02T15:36:50.737Z,101752.94
2023-09-02T15:39:25.991Z,101752.78
2023-09-02T15:41:53.823Z,101761.31
2023-09-02T15:44:22.838Z,101767.72
2023-09-02T15:46:50.452Z,101777.28
2023-09-02T15:49:18.022Z,101785.34
2023-09-02T15:51:45.676Z,101787.66
2023-09-02T15:54:13.294Z,101785.38
2023-09-02T15:56:40.848Z,101797.78
2023-09-02T15:59:08.405Z,101801.44
2023-09-02T16:01:37.390Z,101795.94
2023-09-02T16:04:05.155Z,101811.50
2023-09-02T16:06:33.200Z,101802.34
2023-09-02T16:09:00.837Z,101802.34
2023-09-02T16:11:28.487Z,101801.50
2023-09-02T16:13:56.313Z,101798.00
2023-09-02T16:16:24.075Z,101804.41
2023-09-02T16:18:53.016Z,101808.88
2023-09-02T16:21:20.635Z,101799.97
2023-09-02T16:23:48.311Z,101804.34
2023-09-02T16:26:15.902Z,101805.34
2023-09-02T16:28:43.710Z,101805.81
2023-09-02T16:31:11.483Z,101824.19
2023-09-02T16:33:39.284Z,101815.41
2023-09-02T16:36:08.316Z,101807.78
2023-09-02T16:38:35.964Z,101821.97
2023-09-02T16:41:04.726Z,101824.63
2023-09-02T16:43:32.966Z,101828.09
2023-09-02T16:46:00.685Z,101829.44
2023-09-02T16:48:29.320Z,101826.72
2023-09-02T16:50:57.007Z,101831.56
2023-09-02T16:53:27.628Z,101835.38
2023-09-02T16:56:03.938Z,101825.63
2023-09-02T16:58:32.876Z,101831.06
2023-09-02T17:01:07.132Z,101832.72
2023-09-02T17:03:36.814Z,101835.94
2023-09-02T17:06:08.088Z,101840.13
2023-09-02T17:08:38.516Z,101841.19
2023-09-02T17:11:06.084Z,101843.84
2023-09-02T17:13:35.402Z,101841.44
2023-09-02T17:16:03.049Z,101849.34
2023-09-02T17:18:33.688Z,101850.16
2023-09-02T17:21:02.764Z,101850.66
2023-09-02T17:23:31.627Z,101851.50
2023-09-02T17:26:01.037Z,101857.09
2023-09-02T17:28:28.632Z,101852.59
2023-09-02T17:30:59.025Z,101861.22
2023-09-02T17:33:26.922Z,101859.09
2023-09-02T17:35:54.511Z,101857.00
2023-09-02T17:38:22.189Z,101857.19
2023-09-02T17:40:49.874Z,101861.53
2023-09-02T17:43:18.796Z,101858.16
2023-09-02T17:45:46.400Z,101853.94
2023-09-02T17:48:14.070Z,101857.22
2023-09-02T17:50:41.682Z,101860.72
2023-09-02T17:53:09.355Z,101860.44
2023-09-02T17:55:36.922Z,101854.69
2023-09-02T17:58:06.543Z,101856.13
2023-09-02T18:00:35.633Z,101858.25
2023-09-02T18:03:03.740Z,101859.44
2023-09-02T18:05:31.437Z,101860.63
2023-09-02T18:08:01.356Z,101860.03
2023-09-02T18:10:28.904Z,101862.53
2023-09-02T18:12:56.553Z,101863.22
2023-09-02T18:15:24.202Z,101858.03
2023-09-02T18:17:53.144Z,101859.44
2023-09-02T18:20:20.748Z,101860.84
2023-09-02T18:22:48.323Z,101873.94
2023-09-02T18:25:16.020Z,101869.53
2023-09-02T18:27:43.637Z,101871.75
2023-09-02T18:30:12.218Z,101876.00
2023-09-02T18:32:39.841Z,101881.69
2023-09-02T18:35:09.311Z,101884.59
2023-09-02T18:37:36.931Z,101890.06
2023-09-02T18:40:04.978Z,101890.59
2023-09-02T18:42:32.550Z,101887.31
2023-09-02T18:45:00.146Z,101876.50
2023-09-02T18:47:27.819Z,101884.38
2023-09-02T18:49:55.429Z,101895.28
2023-09-02T18:52:24.601Z,101890.97
2023-09-02T18:54:52.220Z,101888.81
2023-09-02T18:57:19.854Z,101895.75
2023-09-02T18:59:47.486Z,101889.22
2023-09-02T19:02:15.035Z,101889.44
2023-09-02T19:04:42.698Z,101893.19
2023-09-02T19:07:10.364Z,101897.00
2023-09-02T19:09:39.249Z,101898.34
2023-09-02T19:12:07.801Z,101892.09
2023-09-02T19:14:35.970Z,101887.53
2023-09-02T19:17:03.552Z,101881.75
2023-09-02T19:19:31.168Z,101894.22
2023-09-02T19:21:58.757Z,101900.72
2023-09-02T19:24:26.641Z,101896.91
2023-09-02T19:26:55.612Z,101906.94
2023-09-02T19:29:23.240Z,101911.41
2023-09-02T19:31:50.774Z,101905.00
2023-09-02T19:34:20.463Z,101913.75
2023-09-02T19:36:48.958Z,101901.09
2023-09-02T19:39:18.585Z,101910.59
2023-09-02T19:41:47.896Z,101918.38
2023-09-02T19:44:17.345Z,101921.50
2023-09-02T19:46:47.822Z,101924.78
2023-09-02T19:49:15.765Z,101925.47
2023-09-02T19:51:43.578Z,101927.09
2023-09-02T19:54:11.438Z,101940.41
2023-09-02T19:56:39.193Z,101937.53
2023-09-02T19:59:07.073Z,101948.31
2023-09-02T20:01:37.248Z,101944.63
2023-09-02T20:04:05.779Z,101953.34
2023-09-02T20:06:33.528Z,101952.34
2023-09-02T20:09:01.132Z,101958.78
2023-09-02T20:11:28.732Z,101960.66
2023-09-02T20:13:58.954Z,101964.19
2023-09-02T20:16:26.597Z,101965.00
2023-09-02T20:18:55.587Z,101967.91
2023-09-02T20:21:25.446Z,101969.59
2023-09-02T20:23:53.799Z,101971.25
2023-09-02T20:26:21.473Z,101975.00
2023-09-02T20:28:49.227Z,101969.59
2023-09-02T20:31:17.015Z,101969.78
2023-09-02T20:33:46.175Z,101962.75
2023-09-02T20:36:15.550Z,101962.91
2023-09-02T20:38:44.756Z,101963.75
2023-09-02T20:41:12.532Z,101962.09
2023-09-02T20:43:40.313Z,101969.16
2023-09-02T20:46:12.215Z,101971.19
2023-09-02T20:48:39.978Z,101967.91
2023-09-02T20:51:07.840Z,101974.56
2023-09-02T20:53:37.344Z,101983.25
2023-09-02T20:56:05.186Z,101978.72
2023-09-02T20:58:32.784Z,101982.88
2023-09-02T21:01:04.140Z,101996.97
2023-09-02T21:03:31.926Z,101988.69
2023-09-02T21:05:59.963Z,101988.69
2023-09-02T21:08:27.547Z,101983.31
2023-09-02T21:11:08.582Z,101977.06
2023-09-02T21:13:36.181Z,101976.22
2023-09-02T21:16:03.795Z,101989.88
2023-09-02T21:18:31.796Z,101980.97
2023-09-02T21:20:59.395Z,101990.72
2023-09-02T21:23:27.031Z,101989.03
2023-09-02T21:25:54.697Z,101993.78
2023-09-02T21:28:24.702Z,101991.31
2023-09-02T21:30:52.388Z,101993.41
2023-09-02T21:33:20.008Z,101990.47
2023-09-02T21:35:47.872Z,101984.47
2023-09-02T21:38:15.473Z,101987.31
2023-09-02T21:40:43.142Z,101986.09
2023-09-02T21:43:10.687Z,101984.06
2023-09-02T21:45:39.603Z,101983.22
2023-09-02T21:48:07.891Z,101998.38
2023-09-02T21:50:35.466Z,101998.81
2023-09-02T21:53:03.082Z,101996.34
2023-09-02T21:55:30.598Z,102001.31
2023-09-02T21:57:58.265Z,102002.34
2023-09-02T22:00:25.841Z,101999.88
2023-09-02T22:02:55.462Z,102000.09
2023-09-02T22:05:23.148Z,101991.81
2023-09-02T22:07:50.741Z,101993.69
2023-09-02T22:10:18.354Z,101993.91
2023-09-02T22:12:47.881Z,101995.16
2023-09-02T22:15:15.542Z,101994.53
2023-09-02T22:17:43.223Z,101990.81
2023-09-02T22:20:12.490Z,101990.38
2023-09-02T22:22:40.116Z,101991.88
2023-09-02T22:25:08.914Z,101997.25
2023-09-02T22:27:36.528Z,101999.09
2023-09-02T22:30:04.624Z,102005.31
2023-09-02T22:32:32.218Z,102001.81
2023-09-02T22:34:59.896Z,102010.94
2023-09-02T22:37:28.826Z,102026.84
2023-09-02T22:39:56.429Z,102025.19
2023-09-02T22:42:24.019Z,102033.47
2023-09-02T22:44:51.710Z,102033.47
2023-09-02T22:47:19.402Z,102031.38
2023-09-02T22:49:47.051Z,102029.31
2023-09-02T22:52:14.661Z,102039.66
2023-09-02T22:54:43.663Z,102033.47
2023-09-02T22:57:11.316Z,102027.66
2023-09-02T22:59:38.926Z,102018.13
2023-09-02T23:02:08.162Z,102018.97
2023-09-02T23:04:35.831Z,102011.50
2023-09-02T23:07:03.606Z,102023.50
2023-09-02T23:09:31.425Z,102025.59
2023-09-02T23:12:00.437Z,102023.13
2023-09-02T23:14:28.062Z,102025.19
2023-09-02T23:16:56.405Z,102030.13
2023-09-02T23:19:25.252Z,102028.88
2023-09-02T23:21:52.910Z,102039.66
2023-09-02T23:24:20.550Z,102044.66
2023-09-02T23:26:49.675Z,102051.25
2023-09-02T23:29:18.746Z,102051.66
2023-09-02T23:31:46.380Z,102048.53
2023-09-02T23:34:15.760Z,102030.13
2023-09-02T23:36:44.280Z,102030.13
2023-09-02T23:39:11.895Z,102038.03
2023-09-02T23:41:39.472Z,102030.97
2023-09-02T23:44:07.365Z,102031.19
2023-09-02T23:46:36.453Z,102030.53
2023-09-02T23:49:04.090Z,102031.38
2023-09-02T23:51:31.722Z,102040.47
2023-09-02T23:53:59.472Z,102055.41
2023-09-02T23:56:27.315Z,102062.84
2023-09-02T23:58:54.938Z,102078.50
